createdAt,value
2024-02-06T00:05:07.258Z,99.70
2024-02-06T00:10:14.282Z,99.80
2024-02-06T00:15:23.850Z,99.90
2024-02-06T00:20:34.066Z,99.90
2024-02-06T00:25:32.919Z,99.90
2024-02-06T00:30:41.944Z,99.90
2024-02-06T00:35:50.735Z,99.90
2024-02-06T00:41:00.221Z,99.90
2024-02-06T00:46:10.770Z,99.90
2024-02-06T00:51:10.214Z,99.90
2024-02-06T00:56:18.629Z,99.90
2024-02-06T01:01:28.375Z,99.90
2024-02-06T01:06:37.093Z,99.90
2024-02-06T01:11:46.867Z,99.90
2024-02-06T01:16:56.153Z,99.90
2024-02-06T01:22:05.100Z,99.90
2024-02-06T01:27:14.096Z,99.90
2024-02-06T01:32:23.214Z,99.90
2024-02-06T01:37:32.023Z,99.90
2024-02-06T01:42:40.943Z,99.90
2024-02-06T01:47:49.782Z,99.90
2024-02-06T01:52:59.463Z,99.90
2024-02-06T01:58:08.865Z,99.90
2024-02-06T02:03:17.990Z,99.90
2024-02-06T02:08:27.387Z,99.90
2024-02-06T02:13:36.519Z,99.90
2024-02-06T02:18:45.189Z,99.90
2024-02-06T02:23:56.387Z,99.90
2024-02-06T02:29:02.337Z,99.50
2024-02-06T02:34:12.034Z,99.40
2024-02-06T02:39:20.356Z,99.00
2024-02-06T02:44:29.141Z,98.80
2024-02-06T02:49:37.736Z,98.50
2024-02-06T02:54:46.553Z,98.40
2024-02-06T02:59:55.705Z,98.30
2024-02-06T03:05:04.416Z,98.20
2024-02-06T03:10:13.417Z,98.10
2024-02-06T03:15:22.644Z,98.10
2024-02-06T03:20:31.368Z,98.00
2024-02-06T03:25:40.495Z,98.00
2024-02-06T03:30:52.815Z,97.90
2024-02-06T03:35:51.942Z,97.80
2024-02-06T03:41:00.566Z,97.80
2024-02-06T03:46:09.639Z,97.50
2024-02-06T03:51:18.709Z,97.20
2024-02-06T03:56:28.282Z,96.90
2024-02-06T04:01:38.706Z,96.30
2024-02-06T04:06:37.882Z,95.90
2024-02-06T04:11:46.617Z,95.40
2024-02-06T04:16:58.844Z,95.10
2024-02-06T04:21:57.714Z,95.20
2024-02-06T04:27:06.583Z,94.80
2024-02-06T04:32:15.345Z,94.70
2024-02-06T04:37:24.578Z,94.60
2024-02-06T04:42:33.126Z,94.60
2024-02-06T04:47:42.342Z,94.70
2024-02-06T04:52:51.510Z,95.20
2024-02-06T04:58:00.657Z,95.60
2024-02-06T05:03:10.526Z,95.90
2024-02-06T05:08:19.668Z,96.20
2024-02-06T05:13:28.451Z,96.60
2024-02-06T05:18:37.705Z,96.90
2024-02-06T05:23:46.529Z,97.20
2024-02-06T05:28:55.777Z,97.20
2024-02-06T05:34:05.296Z,97.30
2024-02-06T05:39:14.462Z,97.30
2024-02-06T05:44:25.190Z,97.40
2024-02-06T05:49:24.639Z,97.50
2024-02-06T05:54:33.735Z,97.70
2024-02-06T05:59:43.409Z,97.80
2024-02-06T06:04:52.029Z,97.80
2024-02-06T06:10:01.586Z,97.70
2024-02-06T06:15:10.714Z,97.60
2024-02-06T06:20:19.628Z,97.30
2024-02-06T06:25:28.760Z,97.30
2024-02-06T06:30:37.508Z,97.40
2024-02-06T06:35:46.401Z,97.70
2024-02-06T06:40:55.499Z,98.00
2024-02-06T06:46:04.064Z,98.40
2024-02-06T06:51:12.869Z,98.40
2024-02-06T06:56:21.266Z,98.60
2024-02-06T07:01:30.276Z,98.70
2024-02-06T07:06:39.524Z,98.80
2024-02-06T07:11:47.114Z,98.70
2024-02-06T07:16:55.788Z,98.70
2024-02-06T07:22:05.159Z,98.90
2024-02-06T07:27:13.731Z,98.70
2024-02-06T07:32:22.888Z,98.20
2024-02-06T07:37:31.783Z,96.90
2024-02-06T07:42:40.526Z,97.40
2024-02-06T07:47:49.061Z,97.10
2024-02-06T07:52:57.841Z,96.80
2024-02-06T07:58:07.388Z,96.60
2024-02-06T08:03:16.601Z,96.40
2024-02-06T08:08:25.200Z,96.20
2024-02-06T08:13:35.801Z,96.20
2024-02-06T08:18:34.793Z,96.00
2024-02-06T08:23:43.408Z,96.00
2024-02-06T08:28:51.765Z,95.80
2024-02-06T08:34:00.905Z,95.60
2024-02-06T08:39:09.724Z,95.50
2024-02-06T08:44:18.760Z,95.50
2024-02-06T08:49:27.504Z,95.40
2024-02-06T08:54:36.475Z,94.90
2024-02-06T08:59:45.172Z,94.60
2024-02-06T09:04:54.432Z,94.10
2024-02-06T09:10:02.630Z,94.10
2024-02-06T09:15:12.208Z,92.80
2024-02-06T09:20:21.016Z,91.10
2024-02-06T09:25:30.373Z,90.30
2024-02-06T09:30:38.796Z,90.10
2024-02-06T09:35:47.885Z,90.20
2024-02-06T09:40:57.010Z,90.30
2024-02-06T09:46:06.080Z,89.40
2024-02-06T09:51:15.132Z,88.90
2024-02-06T09:56:24.492Z,88.10
2024-02-06T10:01:33.780Z,88.10
2024-02-06T10:06:42.827Z,85.20
2024-02-06T10:11:52.170Z,85.00
2024-02-06T10:17:01.308Z,81.80
2024-02-06T10:22:12.403Z,80.60
2024-02-06T10:27:11.715Z,79.70
2024-02-06T10:32:20.973Z,79.80
2024-02-06T10:37:30.311Z,78.30
2024-02-06T10:43:09.480Z,78.20
2024-02-06T10:47:46.734Z,77.90
2024-02-06T10:52:55.763Z,77.60
2024-02-06T10:58:04.692Z,77.70
2024-02-06T11:03:13.448Z,78.50
2024-02-06T11:08:22.481Z,77.60
2024-02-06T11:13:31.087Z,76.80
2024-02-06T11:18:39.909Z,75.60
2024-02-06T11:23:48.531Z,75.40
2024-02-06T11:28:57.313Z,74.50
2024-02-06T11:34:05.833Z,73.50
2024-02-06T11:39:15.046Z,72.70
2024-02-06T11:44:24.029Z,73.00
2024-02-06T11:49:34.025Z,72.50
2024-02-06T11:54:42.339Z,72.30
2024-02-06T11:59:51.991Z,72.40
2024-02-06T12:05:01.561Z,72.60
2024-02-06T12:10:11.273Z,73.60
2024-02-06T12:15:20.096Z,72.90
2024-02-06T12:20:29.686Z,73.30
2024-02-06T12:25:38.399Z,72.40
2024-02-06T12:30:48.284Z,72.30
2024-02-06T12:35:57.240Z,72.50
2024-02-06T12:41:06.386Z,72.50
2024-02-06T12:46:15.689Z,72.00
2024-02-06T12:51:26.564Z,71.70
2024-02-06T12:56:25.804Z,71.40
2024-02-06T13:01:34.895Z,72.00
2024-02-06T13:06:43.701Z,71.20
2024-02-06T13:11:52.429Z,71.20
2024-02-06T13:17:01.752Z,71.90
2024-02-06T13:22:11.338Z,72.50
2024-02-06T13:27:20.877Z,72.80
2024-02-06T13:32:30.429Z,72.80
2024-02-06T13:37:39.656Z,73.30
2024-02-06T13:42:49.429Z,74.20
2024-02-06T13:47:58.561Z,75.00
2024-02-06T13:53:08.483Z,75.10
2024-02-06T13:58:17.385Z,75.80
2024-02-06T14:03:26.597Z,76.20
2024-02-06T14:08:36.185Z,76.30
2024-02-06T14:13:46.032Z,75.80
2024-02-06T14:18:54.971Z,74.90
2024-02-06T14:24:04.528Z,75.50
2024-02-06T14:29:13.174Z,76.50
2024-02-06T14:34:22.523Z,76.80
2024-02-06T14:39:31.413Z,77.00
2024-02-06T14:44:47.542Z,76.90
2024-02-06T14:49:49.946Z,77.10
2024-02-06T14:54:59.467Z,77.30
2024-02-06T15:00:08.454Z,78.10
2024-02-06T15:05:20.131Z,78.20
2024-02-06T15:10:26.722Z,78.30
2024-02-06T15:15:36.253Z,78.70
2024-02-06T15:20:45.415Z,78.00
2024-02-06T15:25:54.923Z,78.70
2024-02-06T15:31:05.361Z,78.70
2024-02-06T15:36:04.566Z,78.60
2024-02-06T15:41:13.981Z,79.20
2024-02-06T15:46:23.880Z,79.80
2024-02-06T15:51:33.021Z,80.30
2024-02-06T15:56:42.367Z,80.30
2024-02-06T16:01:51.605Z,80.00
2024-02-06T16:07:01.283Z,80.00
2024-02-06T16:12:10.126Z,80.80
2024-02-06T16:17:22.487Z,81.20
2024-02-06T16:22:21.333Z,81.60
2024-02-06T16:27:30.652Z,81.70
2024-02-06T16:32:41.276Z,81.30
2024-02-06T16:37:42.112Z,81.90
2024-02-06T16:42:43.348Z,81.90
2024-02-06T16:47:49.680Z,82.10
2024-02-06T16:52:59.297Z,82.00
2024-02-06T16:58:08.870Z,81.60
2024-02-06T17:03:17.615Z,82.00
2024-02-06T17:08:27.448Z,82.60
2024-02-06T17:13:36.215Z,82.70
2024-02-06T17:18:46.897Z,82.70
2024-02-06T17:23:45.371Z,83.10
2024-02-06T17:28:55.067Z,83.30
2024-02-06T17:34:04.403Z,83.50
2024-02-06T17:39:13.285Z,83.50
2024-02-06T17:44:22.829Z,83.60
2024-02-06T17:49:32.339Z,83.40
2024-02-06T17:54:41.216Z,83.60
2024-02-06T17:59:50.260Z,83.50
2024-02-06T18:04:59.213Z,83.70
2024-02-06T18:10:08.286Z,83.80
2024-02-06T18:15:17.225Z,83.70
2024-02-06T18:20:26.540Z,83.60
2024-02-06T18:25:35.405Z,84.00
2024-02-06T18:30:45.703Z,84.30
2024-02-06T18:35:44.981Z,84.40
2024-02-06T18:40:54.387Z,84.30
2024-02-06T18:46:03.256Z,84.40
2024-02-06T18:51:12.242Z,84.30
2024-02-06T18:56:21.204Z,84.60
2024-02-06T19:01:30.647Z,84.60
2024-02-06T19:06:39.432Z,84.20
2024-02-06T19:11:48.968Z,84.40
2024-02-06T19:16:57.986Z,84.50
2024-02-06T19:22:07.458Z,84.80
2024-02-06T19:27:16.360Z,84.60
2024-02-06T19:32:25.711Z,84.80
2024-02-06T19:37:34.876Z,84.80
2024-02-06T19:42:44.244Z,85.00
2024-02-06T19:47:52.908Z,85.10
2024-02-06T19:53:02.492Z,85.60
2024-02-06T19:58:11.988Z,85.70
2024-02-06T20:03:21.676Z,85.80
2024-02-06T20:08:31.858Z,85.70
2024-02-06T20:13:30.821Z,85.90
2024-02-06T20:18:40.148Z,85.90
2024-02-06T20:23:49.653Z,85.80
2024-02-06T20:28:59.298Z,86.10
2024-02-06T20:34:09.455Z,86.30
2024-02-06T20:39:08.913Z,86.30
2024-02-06T20:44:19.941Z,86.30
2024-02-06T20:49:19.025Z,86.50
2024-02-06T20:54:28.090Z,87.00
2024-02-06T20:59:36.562Z,87.10
2024-02-06T21:04:46.279Z,87.20
2024-02-06T21:09:55.490Z,87.40
2024-02-06T21:15:04.618Z,87.50
2024-02-06T21:20:14.498Z,87.50
2024-02-06T21:25:23.848Z,87.40
2024-02-06T21:30:32.567Z,87.80
2024-02-06T21:35:42.187Z,87.60
2024-02-06T21:40:51.595Z,87.50
2024-02-06T21:46:00.780Z,87.50
2024-02-06T21:51:12.665Z,87.70
2024-02-06T21:56:21.607Z,87.50
2024-02-06T22:01:13.105Z,87.70
2024-02-06T22:06:22.453Z,88.10
2024-02-06T22:11:31.861Z,87.90
2024-02-06T22:16:41.226Z,87.90
2024-02-06T22:21:50.168Z,88.10
2024-02-06T22:26:59.784Z,88.20
2024-02-06T22:32:09.363Z,88.30
2024-02-06T22:37:18.542Z,88.40
2024-02-06T22:42:27.268Z,88.70
2024-02-06T22:47:37.086Z,88.90
2024-02-06T22:52:47.255Z,88.80
2024-02-06T22:57:45.712Z,89.10
2024-02-06T23:02:54.920Z,89.40
2024-02-06T23:08:03.893Z,89.60
2024-02-06T23:13:12.387Z,89.90
2024-02-06T23:18:21.807Z,90.20
2024-02-06T23:23:30.501Z,90.30
2024-02-06T23:28:40.456Z,90.40
2024-02-06T23:33:48.804Z,90.60
2024-02-06T23:39:09.372Z,90.60
2024-02-06T23:44:06.159Z,90.70
2024-02-06T23:49:14.997Z,90.90
2024-02-06T23:54:23.226Z,90.90
2024-02-06T23:59:32.352Z,91.00
